Time;durP1;ratioP1;P1;durP2;ratioP2;P2;SDS_P1;SDS_P2;PMS_P1;PMS_P2;Temp;Humidity;BMP_temperature;BMP_pressure;BME280_temperature;BME280_humidity;BME280_pressure;Samples;Min_cycle;Max_cycle;Signal;HPM_P1;HPM_P2
2022/01/13 00:02:13;;;;;;;14.43;7.60;;;;;;;3.03;97.30;103848.19;5055341;28;20055;-72
2022/01/13 00:04:40;;;;;;;25.95;9.20;;;;;;;3.03;97.72;103840.41;5056862;28;20051;-72
2022/01/13 00:07:09;;;;;;;18.00;8.45;;;;;;;3.09;97.69;103848.19;5048778;28;20113;-73
2022/01/13 00:09:36;;;;;;;26.05;8.82;;;;;;;3.10;97.23;103844.72;5048767;28;21085;-72
2022/01/13 00:12:05;;;;;;;24.35;11.27;;;;;;;3.06;97.32;103840.41;5054968;28;20244;-73
2022/01/13 00:14:56;;;;;;;15.23;7.90;;;;;;;3.05;97.29;103849.91;5055378;28;20167;-73
2022/01/13 00:17:31;;;;;;;15.25;6.55;;;;;;;3.05;97.45;103855.09;5052988;28;20046;-72
2022/01/13 00:20:31;;;;;;;15.85;7.70;;;;;;;3.05;97.76;103857.69;5049319;28;20037;-74
2022/01/13 00:25:43;;;;;;;14.23;8.18;;;;;;;3.04;97.83;103857.72;5048173;28;20049;-72
2022/01/13 00:28:16;;;;;;;17.33;8.82;;;;;;;3.07;97.58;103853.38;5039564;28;20048;-72
2022/01/13 00:30:44;;;;;;;11.52;5.90;;;;;;;3.12;97.14;103859.44;5040876;28;20064;-74
2022/01/13 00:33:13;;;;;;;14.13;8.93;;;;;;;3.11;97.11;103854.25;5057099;28;20076;-72
2022/01/13 00:35:42;;;;;;;18.17;8.18;;;;;;;3.06;97.02;103845.59;5049052;28;20147;-74
2022/01/13 00:38:10;;;;;;;13.45;8.43;;;;;;;3.04;97.30;103842.13;5036469;28;20049;-72
2022/01/13 00:40:37;;;;;;;17.40;8.25;;;;;;;3.07;96.99;103853.38;5033084;28;20113;-74
2022/01/13 00:43:03;;;;;;;25.58;11.32;;;;;;;3.01;96.96;103852.50;5037381;28;20037;-73
2022/01/13 00:45:30;;;;;;;17.67;6.50;;;;;;;3.03;97.42;103856.84;5012808;28;20487;-73
2022/01/13 00:47:57;;;;;;;25.05;7.32;;;;;;;3.01;97.29;103858.59;5035936;28;20049;-73
2022/01/13 00:50:23;;;;;;;10.40;5.60;;;;;;;3.03;97.79;103845.59;5031440;28;20055;-72
2022/01/13 00:52:50;;;;;;;17.02;10.82;;;;;;;3.01;97.42;103848.19;5027413;28;20143;-72
2022/01/13 00:55:21;;;;;;;28.00;8.60;;;;;;;3.01;97.70;103839.53;5033438;28;20132;-72
2022/01/13 00:57:49;;;;;;;12.48;8.98;;;;;;;3.03;97.64;103854.25;5011485;28;20846;-73
2022/01/13 01:00:18;;;;;;;15.13;5.13;;;;;;;3.04;97.51;103850.78;5032473;28;20070;-74
2022/01/13 01:02:45;;;;;;;22.33;8.60;;;;;;;3.06;97.15;103845.59;5048557;28;20052;-72
2022/01/13 01:05:12;;;;;;;11.88;7.88;;;;;;;3.06;97.56;103853.41;5035447;28;20531;-72
2022/01/13 01:07:39;;;;;;;13.23;7.40;;;;;;;3.04;97.57;103857.72;5034931;28;20052;-72
2022/01/13 01:10:06;;;;;;;21.25;8.55;;;;;;;3.06;97.90;103861.19;5054993;28;20048;-72
2022/01/13 01:12:37;;;;;;;14.77;8.55;;;;;;;3.01;97.84;103868.09;5046448;28;20096;-72
2022/01/13 01:15:06;;;;;;;15.63;7.93;;;;;;;3.04;97.52;103855.13;5052765;28;20045;-71
2022/01/13 01:17:34;;;;;;;18.88;8.93;;;;;;;3.04;97.50;103861.16;5045150;28;20075;-72
2022/01/13 01:20:06;;;;;;;19.38;8.82;;;;;;;3.05;97.75;103849.06;5033908;28;20053;-71
2022/01/13 01:22:57;;;;;;;9.35;5.43;;;;;;;3.03;97.41;103846.47;5042392;28;20053;-71
2022/01/13 01:28:21;;;;;;;14.68;7.10;;;;;;;2.96;97.74;103844.72;5047587;28;20060;-73
2022/01/13 01:30:52;;;;;;;22.27;10.68;;;;;;;2.94;97.62;103837.78;5053795;28;20040;-71
2022/01/13 01:33:20;;;;;;;16.23;7.97;;;;;;;2.91;97.67;103832.63;5050772;28;20044;-72
2022/01/13 01:35:48;;;;;;;16.80;9.30;;;;;;;2.91;97.90;103837.81;5048312;28;20130;-72
2022/01/13 01:38:15;;;;;;;29.73;8.13;;;;;;;2.95;98.20;103840.41;5032511;28;20079;-72
2022/01/13 01:40:42;;;;;;;25.77;8.45;;;;;;;2.93;98.21;103846.44;5048838;28;20372;-72
2022/01/13 01:43:08;;;;;;;22.35;7.80;;;;;;;2.93;97.69;103854.22;5046968;28;20167;-73
2022/01/13 01:45:43;;;;;;;21.13;11.05;;;;;;;2.93;97.95;103856.81;5048321;28;20051;-72
2022/01/13 01:48:11;;;;;;;25.30;10.65;;;;;;;2.95;98.42;103861.19;5065817;28;20080;-72
2022/01/13 01:50:38;;;;;;;20.77;8.15;;;;;;;2.94;98.18;103866.34;5047584;28;20052;-72
2022/01/13 01:53:07;;;;;;;26.17;8.13;;;;;;;2.93;98.41;103864.59;5046182;28;20037;-72
2022/01/13 01:55:36;;;;;;;17.02;9.18;;;;;;;2.94;98.25;103866.34;5047391;28;20048;-73
2022/01/13 01:58:02;;;;;;;14.45;7.25;;;;;;;2.95;98.21;103868.09;5066554;28;20438;-72
2022/01/13 02:00:29;;;;;;;15.25;8.98;;;;;;;2.95;98.40;103868.09;5052492;28;20048;-74
2022/01/13 02:02:57;;;;;;;28.30;7.50;;;;;;;2.95;98.00;103870.69;5068493;28;20136;-72
2022/01/13 02:05:24;;;;;;;20.65;8.50;;;;;;;2.94;97.86;103867.22;5053782;28;20043;-71
2022/01/13 02:07:51;;;;;;;18.52;8.90;;;;;;;2.94;98.27;103861.16;5053467;28;20167;-73
2022/01/13 02:10:18;;;;;;;20.50;9.07;;;;;;;2.96;97.77;103862.88;5051962;28;20040;-71
2022/01/13 02:12:50;;;;;;;29.70;9.50;;;;;;;2.95;98.07;103870.69;5055830;28;20048;-72
2022/01/13 02:15:29;;;;;;;26.77;10.95;;;;;;;2.99;98.29;103862.91;5055930;28;20056;-72
2022/01/13 02:17:59;;;;;;;31.45;10.43;;;;;;;3.01;98.37;103868.09;5055579;28;20041;-71
2022/01/13 02:20:47;;;;;;;21.75;8.43;;;;;;;3.04;97.91;103868.09;5058211;28;20047;-72
2022/01/13 02:23:14;;;;;;;13.18;6.03;;;;;;;3.06;97.51;103863.78;5062285;28;20064;-73
2022/01/13 02:25:42;;;;;;;27.05;9.88;;;;;;;3.04;98.02;103860.31;5064267;28;20040;-70
2022/01/13 02:28:09;;;;;;;23.05;11.38;;;;;;;3.02;97.99;103864.63;5073046;28;20051;-70
2022/01/13 02:30:35;;;;;;;21.20;8.00;;;;;;;2.97;97.43;103864.63;5071454;28;20092;-73
2022/01/13 02:33:02;;;;;;;21.65;10.75;;;;;;;2.96;97.73;103867.22;5070000;28;20037;-72
2022/01/13 02:35:36;;;;;;;31.67;10.93;;;;;;;2.95;98.01;103868.09;5066468;28;20048;-73
2022/01/13 02:38:10;;;;;;;29.10;10.13;;;;;;;2.95;98.08;103875.88;5058115;28;20059;-71
2022/01/13 02:40:36;;;;;;;32.35;9.35;;;;;;;2.99;97.70;103865.50;5054423;28;20159;-71
2022/01/13 02:43:03;;;;;;;16.23;7.72;;;;;;;2.96;97.66;103875.88;5035402;28;20049;-72
2022/01/13 02:45:33;;;;;;;21.60;8.85;;;;;;;2.98;97.90;103868.09;5051796;28;20048;-72
2022/01/13 02:48:25;;;;;;;22.55;8.80;;;;;;;2.93;97.88;103860.31;5051713;28;20051;-72
2022/01/13 02:50:52;;;;;;;25.00;10.52;;;;;;;2.94;97.71;103855.97;5052264;28;20055;-72
2022/01/13 02:53:21;;;;;;;28.25;7.90;;;;;;;2.94;98.12;103853.38;5052510;28;20048;-72
2022/01/13 02:55:47;;;;;;;24.45;7.35;;;;;;;2.97;97.87;103850.78;5048948;28;20068;-73
2022/01/13 02:58:14;;;;;;;26.30;9.45;;;;;;;2.93;97.61;103849.03;5054864;28;20063;-71
2022/01/13 03:00:43;;;;;;;25.92;9.75;;;;;;;2.93;98.09;103838.66;5066450;28;20043;-72
2022/01/13 03:03:10;;;;;;;24.33;8.60;;;;;;;2.92;97.76;103837.78;5052119;28;20039;-73
2022/01/13 03:05:38;;;;;;;23.75;8.57;;;;;;;2.91;97.80;103845.59;5050037;28;20086;-72
2022/01/13 03:08:05;;;;;;;22.30;10.90;;;;;;;2.86;97.81;103843.00;5048860;28;20059;-72
2022/01/13 03:10:33;;;;;;;18.90;9.52;;;;;;;2.87;98.03;103834.34;5063730;28;20036;-72
2022/01/13 03:13:01;;;;;;;19.13;8.75;;;;;;;2.82;97.56;103830.00;5054451;28;20063;-71
2022/01/13 03:15:27;;;;;;;17.58;10.20;;;;;;;2.79;97.70;103824.78;5053204;28;20082;-73
2022/01/13 03:17:54;;;;;;;20.80;7.18;;;;;;;2.80;97.80;103821.34;5052043;28;20048;-73
2022/01/13 03:20:21;;;;;;;28.77;8.15;;;;;;;2.77;97.64;103826.50;5055294;28;20051;-73
2022/01/13 03:22:47;;;;;;;18.80;8.05;;;;;;;2.76;97.59;103832.56;5035847;28;20049;-74
2022/01/13 03:25:15;;;;;;;22.58;9.23;;;;;;;2.72;97.89;103829.09;5052380;28;20152;-72
2022/01/13 03:27:43;;;;;;;24.90;7.32;;;;;;;2.72;98.00;103828.25;5055451;28;20483;-73
2022/01/13 03:30:11;;;;;;;48.53;11.48;;;;;;;2.71;98.39;103826.50;5065163;28;20048;-74
2022/01/13 03:32:39;;;;;;;19.90;8.93;;;;;;;2.73;98.18;103835.19;5065178;28;20134;-72
2022/01/13 03:35:07;;;;;;;21.02;9.73;;;;;;;2.71;98.41;103842.94;5051550;28;20107;-73
2022/01/13 03:37:34;;;;;;;21.33;9.40;;;;;;;2.75;98.55;103834.31;5032813;28;20060;-72
2022/01/13 03:40:01;;;;;;;31.98;12.38;;;;;;;2.69;98.43;103833.41;5055522;28;20134;-73
2022/01/13 03:42:28;;;;;;;14.38;8.35;;;;;;;2.72;98.63;103841.22;5052361;28;20044;-73
2022/01/13 03:44:56;;;;;;;21.23;9.95;;;;;;;2.76;98.70;103842.94;5060198;28;20127;-73
2022/01/13 03:47:23;;;;;;;21.17;9.25;;;;;;;2.75;98.61;103844.69;5062155;28;20479;-73
2022/01/13 03:49:50;;;;;;;35.55;10.02;;;;;;;2.78;98.33;103844.72;5068021;28;20045;-71
2022/01/13 03:52:53;;;;;;;32.63;9.82;;;;;;;2.72;98.54;103833.44;5075720;28;20055;-72
2022/01/13 03:56:15;;;;;;;19.90;9.57;;;;;;;2.77;98.09;103847.28;5083625;28;20143;-72
2022/01/13 03:59:11;;;;;;;24.60;11.10;;;;;;;2.75;98.01;103841.25;4953649;28;20062;-73
2022/01/13 04:01:53;;;;;;;39.85;12.55;;;;;;;2.76;98.61;103838.63;4941962;28;20417;-73
2022/01/13 04:04:20;;;;;;;21.55;10.55;;;;;;;2.78;98.89;103836.03;5038680;28;20061;-74
2022/01/13 04:06:46;;;;;;;38.95;10.45;;;;;;;2.76;98.50;103845.53;5053244;28;20040;-72
2022/01/13 04:11:54;;;;;;;30.73;12.48;;;;;;;2.67;98.07;103837.72;5110603;27;20920;-74
2022/01/13 04:14:30;;;;;;;22.45;8.75;;;;;;;2.61;98.54;103841.22;5090963;28;20050;-73
2022/01/13 04:16:56;;;;;;;19.23;7.60;;;;;;;2.59;98.69;103839.44;5091454;28;20039;-73
2022/01/13 04:19:23;;;;;;;18.25;7.07;;;;;;;2.60;98.84;103846.38;5092869;28;20048;-74
2022/01/13 04:21:51;;;;;;;21.10;7.75;;;;;;;2.66;98.79;103828.25;5096620;28;20048;-72
2022/01/13 04:24:17;;;;;;;14.40;6.55;;;;;;;2.67;98.51;103835.13;5102625;28;20063;-74
2022/01/13 04:26:45;;;;;;;23.52;8.68;;;;;;;2.64;98.44;103827.38;5117332;28;20040;-74
2022/01/13 04:29:27;;;;;;;18.75;8.55;;;;;;;2.62;98.50;103834.28;5109511;28;20051;-73
2022/01/13 04:31:53;;;;;;;10.73;6.43;;;;;;;2.60;98.69;103826.50;5095276;28;20048;-74
2022/01/13 04:34:23;;;;;;;20.85;8.85;;;;;;;2.59;98.86;103826.47;5094021;28;20040;-73
2022/01/13 04:36:50;;;;;;;34.67;9.55;;;;;;;2.57;98.84;103825.63;5096107;28;20043;-73
2022/01/13 04:39:17;;;;;;;30.45;9.63;;;;;;;2.58;99.05;103819.56;5089440;28;20036;-73
2022/01/13 04:41:46;;;;;;;19.05;7.88;;;;;;;2.52;99.17;103814.34;5088726;28;20461;-74
2022/01/13 04:44:14;;;;;;;21.50;8.40;;;;;;;2.49;99.04;103816.97;5090814;28;20039;-73
2022/01/13 04:46:44;;;;;;;23.15;8.18;;;;;;;2.50;99.09;103827.31;5086864;28;20039;-74
2022/01/13 04:49:11;;;;;;;9.45;7.22;;;;;;;2.48;99.21;103818.66;5090731;28;20043;-75
2022/01/13 04:51:39;;;;;;;17.40;7.40;;;;;;;2.49;98.99;103816.97;5094798;28;20187;-73
2022/01/13 04:54:06;;;;;;;15.27;6.88;;;;;;;2.51;98.74;103813.50;5098432;28;20036;-73
2022/01/13 04:56:40;;;;;;;17.60;10.77;;;;;;;2.46;99.19;103807.41;5086720;28;20039;-73
2022/01/13 04:59:07;;;;;;;31.85;9.90;;;;;;;2.42;98.72;103808.28;5095902;28;20039;-73
2022/01/13 05:01:34;;;;;;;22.80;6.43;;;;;;;2.40;98.99;103812.59;5091259;28;20039;-74
2022/01/13 05:04:02;;;;;;;23.67;6.20;;;;;;;2.38;99.02;103808.28;5111281;27;20055;-75
2022/01/13 05:06:28;;;;;;;7.07;3.85;;;;;;;2.35;98.76;103812.59;5094879;28;20140;-75
2022/01/13 05:08:55;;;;;;;20.48;7.38;;;;;;;2.25;98.38;103806.50;5091630;28;20040;-73
2022/01/13 05:11:22;;;;;;;28.88;8.18;;;;;;;2.27;99.10;103809.94;5097393;28;20052;-73
2022/01/13 05:13:49;;;;;;;14.45;5.85;;;;;;;2.26;98.95;103804.78;5098515;28;20039;-74
2022/01/13 05:16:21;;;;;;;13.27;7.57;;;;;;;2.30;99.25;103811.72;5107506;27;20089;-74
2022/01/13 05:18:52;;;;;;;11.82;7.60;;;;;;;2.27;99.28;103812.53;5095915;28;20111;-76
2022/01/13 05:21:23;;;;;;;15.23;5.93;;;;;;;2.27;99.25;103807.34;5088574;28;20040;-74
2022/01/13 05:23:52;;;;;;;11.50;6.47;;;;;;;2.30;99.50;103812.56;5070718;28;20048;-73
2022/01/13 05:26:20;;;;;;;22.48;10.75;;;;;;;2.24;99.37;103811.66;5057781;28;20448;-74
2022/01/13 05:28:47;;;;;;;18.67;7.32;;;;;;;2.22;99.18;103809.09;5079404;28;20130;-73
2022/01/13 05:31:14;;;;;;;12.50;7.25;;;;;;;2.19;99.55;103809.06;5081686;28;20237;-74
2022/01/13 05:33:43;;;;;;;18.08;7.32;;;;;;;2.29;99.40;103805.66;5077775;28;20055;-74
2022/01/13 05:36:10;;;;;;;14.63;6.10;;;;;;;2.25;99.21;103798.72;5082776;28;20044;-72
2022/01/13 05:38:38;;;;;;;15.48;7.18;;;;;;;2.28;99.23;103801.31;5076232;28;20040;-73
2022/01/13 05:41:05;;;;;;;22.00;8.77;;;;;;;2.30;99.64;103799.59;5084423;28;20050;-72
2022/01/13 05:43:31;;;;;;;14.07;7.18;;;;;;;2.34;99.29;103803.91;5083915;28;20039;-74
2022/01/13 05:45:58;;;;;;;16.90;7.25;;;;;;;2.36;99.33;103797.00;5077313;28;20106;-76
2022/01/13 05:48:24;;;;;;;12.60;9.30;;;;;;;2.34;98.89;103800.47;5082563;28;20052;-72
2022/01/13 05:50:51;;;;;;;14.65;6.47;;;;;;;2.35;99.37;103805.66;5075172;28;20055;-73
2022/01/13 05:53:18;;;;;;;20.23;7.35;;;;;;;2.35;99.41;103794.44;5071654;28;20047;-74
2022/01/13 05:55:46;;;;;;;17.85;8.55;;;;;;;2.33;99.23;103802.22;5078666;28;20036;-73
2022/01/13 05:58:13;;;;;;;12.30;6.47;;;;;;;2.33;98.77;103803.91;5083602;28;20027;-74
2022/01/13 06:00:39;;;;;;;13.30;8.05;;;;;;;2.35;99.58;103804.81;5079483;28;20122;-70
2022/01/13 06:03:06;;;;;;;17.10;8.35;;;;;;;2.33;99.30;103812.59;5083647;28;20040;-71
2022/01/13 06:05:33;;;;;;;11.57;6.60;;;;;;;2.37;99.56;103810.88;5082346;28;20054;-69
2022/01/13 06:08:00;;;;;;;9.93;6.35;;;;;;;2.34;99.05;103811.69;5076974;28;20048;-69
2022/01/13 06:10:26;;;;;;;12.05;5.47;;;;;;;2.30;98.68;103816.91;5083526;28;20048;-69
2022/01/13 06:12:55;;;;;;;17.38;9.52;;;;;;;2.19;98.75;103811.66;5081160;28;20040;-69
2022/01/13 06:15:23;;;;;;;9.85;6.30;;;;;;;2.13;99.07;103806.44;5086087;28;20093;-70
2022/01/13 06:17:52;;;;;;;13.30;6.93;;;;;;;2.10;99.03;103801.25;5076692;28;20094;-69
2022/01/13 06:20:20;;;;;;;17.05;6.50;;;;;;;2.10;99.21;103793.47;5091147;28;20054;-69
2022/01/13 06:22:48;;;;;;;15.65;7.55;;;;;;;2.11;99.39;103794.34;5098046;28;20043;-71
2022/01/13 06:25:16;;;;;;;12.70;7.60;;;;;;;2.11;99.34;103795.19;5096560;28;20060;-70
2022/01/13 06:27:43;;;;;;;14.10;6.63;;;;;;;2.12;99.74;103781.38;5091102;28;20065;-70
2022/01/13 06:30:16;;;;;;;22.83;8.75;;;;;;;2.11;99.56;103779.66;5103084;28;20028;-70
2022/01/13 06:32:42;;;;;;;20.95;8.85;;;;;;;2.14;99.43;103782.25;5101064;27;20052;-71
2022/01/13 06:35:10;;;;;;;15.73;5.57;;;;;;;2.14;99.60;103778.78;5086664;28;20064;-69
2022/01/13 06:37:36;;;;;;;7.20;4.55;;;;;;;2.12;99.51;103783.13;5080682;28;20266;-70
2022/01/13 06:40:05;;;;;;;17.92;8.93;;;;;;;2.04;99.43;103788.25;5080247;28;20039;-70
2022/01/13 06:42:32;;;;;;;18.08;9.80;;;;;;;2.04;99.71;103792.59;5082457;28;20051;-69
2022/01/13 06:44:58;;;;;;;16.02;7.03;;;;;;;2.04;99.81;103797.78;5079255;28;20032;-70
2022/01/13 06:47:26;;;;;;;16.67;8.25;;;;;;;2.04;100.00;103792.59;5085143;28;20127;-71
2022/01/13 06:49:53;;;;;;;13.73;6.55;;;;;;;2.03;100.00;103798.63;5079579;28;20067;-68
2022/01/13 06:52:20;;;;;;;14.88;7.63;;;;;;;2.01;100.00;103798.59;5067742;28;20048;-69
2022/01/13 06:54:47;;;;;;;19.10;7.45;;;;;;;2.01;100.00;103810.72;5068211;28;20716;-68
2022/01/13 06:57:13;;;;;;;17.70;8.65;;;;;;;2.04;100.00;103808.16;5072469;28;20098;-68
2022/01/13 06:59:42;;;;;;;19.73;7.60;;;;;;;2.04;100.00;103811.59;5070769;28;20043;-69
2022/01/13 07:02:08;;;;;;;19.00;6.20;;;;;;;2.04;100.00;103809.00;5084982;28;20080;-69
2022/01/13 07:04:36;;;;;;;18.63;9.25;;;;;;;2.01;100.00;103803.78;5073582;28;20077;-70
2022/01/13 07:07:04;;;;;;;12.48;6.55;;;;;;;2.05;100.00;103802.97;5074497;28;20040;-69
2022/01/13 07:09:30;;;;;;;17.70;7.05;;;;;;;2.03;100.00;103803.81;5067698;28;20142;-71
2022/01/13 07:11:59;;;;;;;22.00;9.60;;;;;;;2.00;100.00;103806.41;5070268;28;20047;-71
2022/01/13 07:14:26;;;;;;;15.93;7.30;;;;;;;2.05;100.00;103810.75;5074626;28;20040;-69
2022/01/13 07:16:52;;;;;;;13.45;8.20;;;;;;;2.02;100.00;103812.47;5068352;28;20059;-70
2022/01/13 07:19:19;;;;;;;23.27;9.20;;;;;;;1.99;100.00;103817.63;5085454;28;20765;-71
2022/01/13 07:21:47;;;;;;;19.45;6.22;;;;;;;1.96;100.00;103815.03;5076859;28;20133;-74
2022/01/13 07:24:14;;;;;;;27.70;8.70;;;;;;;1.95;100.00;103821.91;5069892;28;20040;-74
2022/01/13 07:26:41;;;;;;;20.15;8.20;;;;;;;1.94;100.00;103827.09;5071330;28;20083;-74
2022/01/13 07:29:08;;;;;;;19.75;9.63;;;;;;;2.02;100.00;103828.00;5082988;28;20104;-73
2022/01/13 07:31:35;;;;;;;15.68;6.32;;;;;;;2.03;100.00;103821.97;5077676;28;20039;-74
2022/01/13 07:34:02;;;;;;;17.52;8.32;;;;;;;2.03;100.00;103820.22;5078407;28;20059;-73
2022/01/13 07:36:29;;;;;;;15.68;8.05;;;;;;;2.06;100.00;103817.66;5080021;28;20085;-73
2022/01/13 07:38:59;;;;;;;23.45;7.85;;;;;;;2.08;100.00;103813.34;5073254;28;20044;-74
2022/01/13 07:41:25;;;;;;;6.85;5.05;;;;;;;2.06;99.95;103815.06;5084052;28;20093;-74
2022/01/13 07:43:55;;;;;;;10.65;6.25;;;;;;;2.07;100.00;103816.81;5078673;28;20036;-73
2022/01/13 07:46:22;;;;;;;22.33;9.38;;;;;;;2.08;100.00;103809.88;5080737;28;20086;-74
2022/01/13 07:48:49;;;;;;;16.95;7.93;;;;;;;2.07;100.00;103813.34;5076685;28;20039;-75
2022/01/13 07:51:15;;;;;;;21.02;8.77;;;;;;;2.07;99.94;103816.81;5080738;28;20075;-73
2022/01/13 07:53:43;;;;;;;15.98;5.65;;;;;;;2.04;99.66;103819.38;5074426;28;20046;-73
2022/01/13 07:56:11;;;;;;;13.13;9.43;;;;;;;1.96;100.00;103825.41;5083485;28;20093;-73
2022/01/13 07:58:37;;;;;;;17.90;8.95;;;;;;;1.94;99.98;103827.97;5076399;28;20040;-73
2022/01/13 08:01:04;;;;;;;23.73;7.32;;;;;;;1.88;99.89;103833.13;5075664;28;20040;-72
2022/01/13 08:03:31;;;;;;;13.07;6.60;;;;;;;1.88;100.00;103822.75;5076126;28;20040;-73
2022/01/13 08:05:58;;;;;;;11.05;7.38;;;;;;;1.87;100.00;103826.19;5077241;28;20045;-73
2022/01/13 08:08:25;;;;;;;13.35;5.95;;;;;;;1.82;100.00;103832.22;5074702;28;20033;-75
2022/01/13 08:10:51;;;;;;;11.93;6.43;;;;;;;1.84;100.00;103828.81;5077570;28;20056;-74
2022/01/13 08:13:20;;;;;;;12.20;5.35;;;;;;;1.87;100.00;103831.38;5083283;28;20559;-74
2022/01/13 08:15:50;;;;;;;13.13;6.50;;;;;;;1.92;100.00;103834.88;5092691;28;20108;-73
2022/01/13 08:21:01;;;;;;;16.60;6.65;;;;;;;1.97;100.00;103838.34;5088352;28;20078;-73
2022/01/13 08:23:31;;;;;;;12.20;6.55;;;;;;;2.01;100.00;103836.66;5076891;28;20048;-73
2022/01/13 08:25:58;;;;;;;25.40;8.20;;;;;;;2.01;100.00;103850.47;5075993;28;20047;-74
2022/01/13 08:28:28;;;;;;;15.07;5.75;;;;;;;2.06;100.00;103848.78;5075045;28;20339;-73
2022/01/13 08:30:55;;;;;;;14.20;8.35;;;;;;;2.04;100.00;103847.91;5075423;28;20067;-71
2022/01/13 08:33:22;;;;;;;12.95;6.53;;;;;;;1.99;99.71;103847.03;5074717;28;20050;-70
2022/01/13 08:35:49;;;;;;;16.98;7.18;;;;;;;2.05;99.71;103856.56;5076374;28;20040;-74
2022/01/13 08:38:18;;;;;;;15.45;7.18;;;;;;;2.07;99.57;103858.28;5073950;28;20070;-73
2022/01/13 08:40:46;;;;;;;24.25;6.32;;;;;;;2.07;99.46;103871.25;5075468;28;20123;-73
2022/01/13 08:43:13;;;;;;;22.83;6.82;;;;;;;2.10;100.00;103876.44;5074925;28;20048;-72
2022/01/13 08:45:41;;;;;;;20.67;6.85;;;;;;;2.08;99.90;103873.00;5067040;28;21004;-73
2022/01/13 08:48:07;;;;;;;12.30;6.45;;;;;;;2.14;99.77;103867.81;5073254;28;20123;-73
2022/01/13 08:50:34;;;;;;;19.23;6.88;;;;;;;2.14;99.79;103872.13;5091860;28;20406;-74
2022/01/13 08:53:00;;;;;;;12.50;6.65;;;;;;;2.08;99.84;103865.22;5076091;28;20717;-73
2022/01/13 08:55:27;;;;;;;17.67;6.10;;;;;;;2.17;99.90;103873.03;5079861;28;20079;-75
2022/01/13 08:57:54;;;;;;;12.77;6.90;;;;;;;2.25;100.00;103870.47;5085450;28;20040;-72
2022/01/13 09:00:21;;;;;;;19.95;7.18;;;;;;;2.31;99.85;103866.19;5090554;28;20040;-73
2022/01/13 09:02:48;;;;;;;14.55;7.50;;;;;;;2.36;99.70;103872.22;5084060;28;20068;-72
2022/01/13 09:05:17;;;;;;;13.52;6.22;;;;;;;2.33;99.66;103874.84;5098777;28;20035;-73
2022/01/13 09:07:43;;;;;;;19.00;8.20;;;;;;;2.33;99.68;103869.66;5099020;28;20075;-74
2022/01/13 09:10:12;;;;;;;10.43;5.13;;;;;;;2.31;99.19;103871.38;5079316;28;20062;-74
2022/01/13 09:12:38;;;;;;;13.32;6.13;;;;;;;2.29;99.03;103880.84;5078051;28;20078;-74
2022/01/13 09:15:16;;;;;;;11.65;6.88;;;;;;;2.32;98.99;103873.09;5080590;28;20044;-73
2022/01/13 09:17:44;;;;;;;20.30;6.78;;;;;;;2.36;98.90;103873.97;5075317;28;20722;-74
2022/01/13 09:20:16;;;;;;;16.47;8.10;;;;;;;2.44;98.88;103874.00;5076123;28;20056;-74
2022/01/13 09:22:43;;;;;;;16.38;8.30;;;;;;;2.39;99.06;103870.50;5080653;28;20297;-73
2022/01/13 09:25:11;;;;;;;8.60;6.00;;;;;;;2.52;99.18;103872.31;5073583;28;20142;-74
2022/01/13 09:27:39;;;;;;;15.13;7.57;;;;;;;2.57;98.67;103877.53;5082413;28;20105;-73
2022/01/13 09:30:08;;;;;;;9.65;6.78;;;;;;;2.61;98.35;103877.53;5075326;28;20044;-75
2022/01/13 09:32:35;;;;;;;20.02;6.32;;;;;;;2.52;97.80;103881.81;5075930;28;20044;-73
2022/01/13 09:35:02;;;;;;;3.45;2.05;;;;;;;2.47;97.98;103888.72;5081878;28;20044;-73
2022/01/13 09:37:30;;;;;;;15.05;7.68;;;;;;;2.46;97.85;103893.03;5074142;28;20604;-74
2022/01/13 09:39:56;;;;;;;6.90;5.32;;;;;;;2.44;98.49;103892.19;5078129;28;20064;-74
2022/01/13 09:42:24;;;;;;;14.43;7.15;;;;;;;2.45;98.52;103880.94;5074775;28;20048;-75
2022/01/13 09:44:51;;;;;;;12.85;8.00;;;;;;;2.45;98.37;103882.66;5076028;28;20036;-67
2022/01/13 09:47:17;;;;;;;23.88;7.18;;;;;;;2.42;98.73;103882.66;5075114;28;20052;-69
2022/01/13 09:49:44;;;;;;;22.80;6.30;;;;;;;2.42;98.63;103885.25;5083743;28;20044;-73
2022/01/13 09:52:11;;;;;;;16.55;5.88;;;;;;;2.45;98.22;103888.72;5078027;28;20048;-73
2022/01/13 09:54:39;;;;;;;15.68;8.13;;;;;;;2.48;98.94;103885.28;5080960;28;20037;-72
2022/01/13 09:57:06;;;;;;;10.32;4.68;;;;;;;2.59;98.66;103894.81;5078499;28;20040;-70
2022/01/13 09:59:32;;;;;;;8.80;5.57;;;;;;;2.59;98.50;103880.97;5079802;28;20036;-70
2022/01/13 10:01:59;;;;;;;11.85;6.00;;;;;;;2.49;98.13;103885.25;5075441;28;20044;-69
2022/01/13 10:04:48;;;;;;;22.00;8.90;;;;;;;2.56;98.04;103876.63;5075000;28;20040;-68
2022/01/13 10:07:18;;;;;;;18.52;6.45;;;;;;;2.60;98.32;103886.19;5078015;28;20085;-69
2022/01/13 10:09:58;;;;;;;14.70;6.40;;;;;;;2.72;98.13;103874.97;5090762;28;20051;-71
2022/01/13 10:12:29;;;;;;;14.43;7.45;;;;;;;2.75;98.32;103873.25;5094390;28;20047;-71
2022/01/13 10:17:46;;;;;;;10.65;6.47;;;;;;;2.94;97.95;103867.22;5078381;28;20155;-71
2022/01/13 10:20:14;;;;;;;21.25;10.95;;;;;;;3.01;97.51;103862.88;5074520;28;20048;-72
2022/01/13 10:22:40;;;;;;;17.52;7.57;;;;;;;3.02;97.12;103864.63;5075084;28;20046;-72
2022/01/13 10:25:24;;;;;;;14.50;6.28;;;;;;;3.04;97.00;103860.31;5077925;28;20570;-71
2022/01/13 10:27:51;;;;;;;13.13;7.15;;;;;;;3.11;97.09;103854.25;5077445;28;20040;-71
2022/01/13 10:30:18;;;;;;;17.90;6.80;;;;;;;3.04;96.37;103862.91;5077085;28;20678;-70
2022/01/13 10:32:46;;;;;;;10.32;6.32;;;;;;;3.09;97.11;103866.34;5088111;28;20110;-68
2022/01/13 10:35:15;;;;;;;17.08;7.68;;;;;;;3.03;96.83;103861.16;5077843;28;20079;-69
2022/01/13 10:37:44;;;;;;;24.13;6.30;;;;;;;3.02;96.82;103867.22;5076442;28;20047;-70
2022/01/13 10:40:16;;;;;;;14.13;6.40;;;;;;;3.00;96.98;103868.94;5075216;28;20051;-70
2022/01/13 10:43:07;;;;;;;11.45;5.40;;;;;;;3.02;97.27;103869.81;5073976;28;20445;-68
2022/01/13 10:45:36;;;;;;;13.43;5.68;;;;;;;3.05;97.16;103869.84;5066040;28;20048;-70
2022/01/13 10:48:13;;;;;;;9.00;6.63;;;;;;;2.99;96.34;103869.84;5080368;28;20486;-68
2022/01/13 10:50:43;;;;;;;14.73;4.40;;;;;;;3.01;97.14;103858.59;5071331;28;20072;-69
2022/01/13 10:53:11;;;;;;;30.10;6.97;;;;;;;3.10;96.87;103857.72;5075397;28;20063;-71
2022/01/13 10:55:42;;;;;;;12.70;4.28;;;;;;;3.11;96.75;103854.25;5079363;28;20356;-69
2022/01/13 10:58:09;;;;;;;10.82;6.03;;;;;;;3.05;96.33;103859.44;5079587;28;20063;-71
2022/01/13 11:00:36;;;;;;;15.02;5.00;;;;;;;3.21;97.03;103860.31;5074836;28;20045;-71
2022/01/13 11:03:06;;;;;;;8.25;6.13;;;;;;;3.16;96.30;103854.25;5071609;28;20048;-72
2022/01/13 11:05:39;;;;;;;12.45;7.53;;;;;;;3.16;96.38;103856.84;5078654;28;20043;-71
2022/01/13 11:08:08;;;;;;;10.95;6.72;;;;;;;3.19;96.54;103849.06;5074917;28;20033;-71
2022/01/13 11:10:36;;;;;;;14.07;5.88;;;;;;;3.22;96.73;103854.28;5075480;28;20139;-71
2022/01/13 11:13:07;;;;;;;21.98;10.02;;;;;;;3.07;96.70;103850.78;5079508;28;20260;-70
2022/01/13 11:15:34;;;;;;;14.07;6.03;;;;;;;3.14;96.84;103851.66;5076683;28;20544;-72
2022/01/13 11:18:01;;;;;;;13.52;6.72;;;;;;;3.25;96.52;103833.47;5075469;28;20063;-72
2022/01/13 11:20:28;;;;;;;22.63;9.65;;;;;;;3.26;96.45;103844.75;5077440;28;21103;-73
2022/01/13 11:22:57;;;;;;;22.20;6.07;;;;;;;3.27;97.01;103841.28;5070783;28;20075;-73
2022/01/13 11:25:26;;;;;;;17.67;7.22;;;;;;;3.33;96.90;103847.31;5072216;28;20044;-73
2022/01/13 11:27:55;;;;;;;16.00;5.97;;;;;;;3.39;96.40;103842.16;5075484;28;20128;-73
2022/01/13 11:30:26;;;;;;;16.65;8.07;;;;;;;3.22;96.42;103843.88;5077929;28;20143;-73
2022/01/13 11:32:52;;;;;;;25.25;7.78;;;;;;;3.20;97.09;103835.22;5074387;28;20580;-74
2022/01/13 11:35:22;;;;;;;10.90;5.93;;;;;;;3.19;97.01;103840.41;5079588;28;20044;-75
2022/01/13 11:37:50;;;;;;;12.35;5.38;;;;;;;3.28;96.63;103838.69;5078258;28;20044;-72
2022/01/13 11:40:38;;;;;;;11.93;5.35;;;;;;;3.34;96.13;103837.81;5087288;28;20036;-73
2022/01/13 11:43:07;;;;;;;16.35;7.65;;;;;;;3.38;96.08;103829.13;5088876;28;20048;-72
2022/01/13 11:45:43;;;;;;;6.55;4.50;;;;;;;3.36;96.51;103828.28;5099422;28;20037;-75
2022/01/13 11:48:29;;;;;;;17.35;6.55;;;;;;;3.41;96.18;103824.78;5080411;28;20064;-72